Seth D. — WDF4107 — position and weather

sailwx.info

Track history (hours):
 
Tides and Currents Weather Stations Pressure Air Temp Water Temp Dewpoint Dewpoint Depression Visibility Wind Speed Wind Dir Waves Ship Positions

Seth D.

Owner: C & J Marine Services, Inc., Berwick, LA. More information available from US FCC via Universal Licensing System and Coast Guard Vessel Documentation Center.

Last reported at 2017-Oct-20 16:01 UTC. Time now 2017-Oct-20 16:19 UTC.
Position N 30°04' W 093°21'.

Length 21 m; draft 3 m.

Type: Tug. MMSI: 367448060.

Date/timePositionNaut miles runAvg speedWind from/ knotsBaromVisibWave heightAir tempDewpointWater temp
2017-Oct-20 16:01N 30°04' W 093°21'0 0.8
2017-Oct-20 15:30N 30°04' W 093°21'2 3.8
2017-Oct-20 15:01N 30°05' W 093°20'2 3.3
2017-Oct-20 14:31N 30°05' W 093°18'1 0.9
2017-Oct-20 13:30N 30°05' W 093°17'0 0.0
2017-Oct-20 13:01N 30°05' W 093°17'0 0.4
2017-Oct-20 12:31N 30°05' W 093°17'1 3.0
2017-Oct-20 12:01N 30°03' W 093°16'1 2.6
2017-Oct-20 11:31N 30°02' W 093°15'1 2.6
2017-Oct-20 11:00N 30°01' W 093°14'2 3.9
2017-Oct-20 10:30N 29°60' W 093°13'2 4.0
2017-Oct-20 10:01N 29°58' W 093°11'3 4.0
2017-Oct-20 09:22N 29°56' W 093°10'1 3.3
2017-Oct-20 09:01N 29°56' W 093°08'2 4.5
2017-Oct-20 08:30N 29°56' W 093°06'39 4.4
2017-Oct-19 23:40N 29°51' W 092°21'1 4.6
2017-Oct-19 23:29N 29°51' W 092°20'2 4.5
2017-Oct-19 22:56N 29°50' W 092°18'2 4.1
2017-Oct-19 22:31N 29°49' W 092°16'2 4.8
2017-Oct-19 22:01N 29°48' W 092°14'2 3.3
2017-Oct-19 21:31N 29°47' W 092°12'1 1.6
2017-Oct-19 21:01N 29°47' W 092°11'0 0.0
2017-Oct-19 20:31N 29°47' W 092°11'0 0.0
2017-Oct-19 20:01N 29°47' W 092°11'0 0.0
2017-Oct-19 19:31N 29°47' W 092°11'1 1.1
2017-Oct-19 19:01N 29°47' W 092°10'2 4.0
2017-Oct-19 18:31N 29°47' W 092°08'2 4.4
2017-Oct-19 18:01N 29°48' W 092°06'11 2.8
2017-Oct-19 14:06N 29°53' W 091°55'0 2.9
2017-Oct-19 13:57N 29°53' W 091°55'1 1.5
2017-Oct-19 13:31N 29°53' W 091°56'55 2.7
2017-Oct-18 17:07N 29°34' W 090°57'1 4.8
2017-Oct-18 16:56N 29°34' W 090°56'2 4.7
2017-Oct-18 16:27N 29°33' W 090°54'2 4.6
2017-Oct-18 16:00N 29°32' W 090°51'2 4.7
2017-Oct-18 15:30N 29°32' W 090°49'2 4.7
2017-Oct-18 15:01N 29°32' W 090°46'4 4.2
2017-Oct-18 14:01N 29°35' W 090°43'2 3.6
2017-Oct-18 13:31N 29°37' W 090°42'1 2.8
2017-Oct-18 13:00N 29°36' W 090°40'0 0.0
2017-Oct-18 12:31N 29°36' W 090°40'0 0.1
2017-Oct-18 12:01N 29°36' W 090°40'1 2.5
2017-Oct-18 11:31N 29°37' W 090°42'3 5.0
2017-Oct-18 11:00N 29°35' W 090°43'2 4.2
2017-Oct-18 10:31N 29°33' W 090°42'0 0.2
2017-Oct-18 10:01N 29°33' W 090°42'1 2.1
2017-Oct-18 09:31N 29°33' W 090°43'2 3.7
2017-Oct-18 09:00N 29°35' W 090°43'2 3.0
2017-Oct-18 08:31N 29°37' W 090°42'0 0.2
2017-Oct-18 08:01N 29°37' W 090°42'0 0.1
2017-Oct-18 07:30N 29°37' W 090°42'2 3.2
2017-Oct-18 07:01N 29°36' W 090°40'0 0.1
2017-Oct-18 06:30N 29°36' W 090°41'0 0.0
2017-Oct-18 06:00N 29°36' W 090°41'0 0.1
2017-Oct-18 05:30N 29°36' W 090°40'0 0.0
2017-Oct-18 05:01N 29°36' W 090°41'0 0.0
2017-Oct-18 04:31N 29°36' W 090°40'0 0.0
2017-Oct-18 04:01N 29°36' W 090°40'0 0.0
2017-Oct-18 03:31N 29°36' W 090°40'0 0.1
2017-Oct-18 03:01N 29°36' W 090°40'1 2.4
2017-Oct-18 02:31N 29°36' W 090°39'2 4.3
2017-Oct-18 02:00N 29°35' W 090°37'2 4.1
2017-Oct-18 01:30N 29°34' W 090°35'9 0.2
2017-Oct-16 00:49N 29°33' W 090°24'2 5.1
2017-Oct-16 00:26N 29°33' W 090°26'2 5.0
2017-Oct-16 00:00N 29°34' W 090°29'2 5.0
2017-Oct-15 23:31N 29°34' W 090°32'2 4.6
2017-Oct-15 23:01N 29°34' W 090°34'2 4.6
2017-Oct-15 22:31N 29°35' W 090°37'2 4.9
2017-Oct-15 22:00N 29°36' W 090°39'2 4.7
2017-Oct-15 21:31N 29°37' W 090°42'2 3.9
2017-Oct-15 21:01N 29°35' W 090°43'2 3.1
2017-Oct-15 20:31N 29°34' W 090°44'2 3.4
2017-Oct-15 20:01N 29°33' W 090°45'1 1.1
2017-Oct-15 19:31N 29°32' W 090°46'1 2.5
2017-Oct-15 19:01N 29°32' W 090°47'65 3.3
2017-Oct-14 23:05N 29°50' W 091°60'1 6.2
2017-Oct-14 23:00N 29°50' W 092°00'3 6.0
2017-Oct-14 22:31N 29°49' W 092°03'3 5.8
2017-Oct-14 22:01N 29°48' W 092°07'3 5.5
2017-Oct-14 21:31N 29°47' W 092°10'1 2.1
2017-Oct-14 21:00N 29°47' W 092°11'0 0.9
2017-Oct-14 20:31N 29°47' W 092°10'2 3.3
2017-Oct-14 20:01N 29°47' W 092°09'3 6.4
2017-Oct-14 19:31N 29°48' W 092°05'59 4.1
2017-Oct-14 05:03N 29°36' W 090°58'0 5.6
2017-Oct-14 04:59N 29°35' W 090°58'3 5.3
2017-Oct-14 04:26N 29°34' W 090°55'2 5.4
2017-Oct-14 04:00N 29°32' W 090°53'3 5.1
2017-Oct-14 03:30N 29°32' W 090°50'3 5.1
2017-Oct-14 03:01N 29°32' W 090°47'2 4.1
2017-Oct-14 02:31N 29°33' W 090°45'2 3.6
2017-Oct-14 02:01N 29°34' W 090°43'2 3.8
2017-Oct-14 01:28N 29°36' W 090°43'1 2.2
2017-Oct-14 01:01N 29°37' W 090°42'0 0.0
2017-Oct-14 00:30N 29°37' W 090°42'0 1.0
2017-Oct-14 00:00N 29°37' W 090°41'2 4.8
2017-Oct-13 23:30N 29°36' W 090°39'2 5.1
2017-Oct-13 23:01N 29°35' W 090°36'1 2.4
2017-Oct-13 22:25N 29°34' W 090°35'  
Track history (hours):
 
Tides and Currents Weather Stations Pressure Air Temp Water Temp Dewpoint Dewpoint Depression Visibility Wind Speed Wind Dir Waves Ship Positions

Seth D.

Owner: C & J Marine Services, Inc., Berwick, LA. More information available from US FCC via Universal Licensing System and Coast Guard Vessel Documentation Center.

Last reported at 2017-Oct-20 16:01 UTC. Time now 2017-Oct-20 16:19 UTC.
Position N 30°04' W 093°21'.

Length 21 m; draft 3 m.

Type: Tug. MMSI: 367448060.

Date/timePositionNaut miles runAvg speedWind from/ knotsBaromVisibWave heightAir tempDewpointWater temp
2017-Oct-20 16:01N 30°04' W 093°21'0 0.8
2017-Oct-20 15:30N 30°04' W 093°21'2 3.8
2017-Oct-20 15:01N 30°05' W 093°20'2 3.3
2017-Oct-20 14:31N 30°05' W 093°18'1 0.9
2017-Oct-20 13:30N 30°05' W 093°17'0 0.0
2017-Oct-20 13:01N 30°05' W 093°17'0 0.4
2017-Oct-20 12:31N 30°05' W 093°17'1 3.0
2017-Oct-20 12:01N 30°03' W 093°16'1 2.6
2017-Oct-20 11:31N 30°02' W 093°15'1 2.6
2017-Oct-20 11:00N 30°01' W 093°14'2 3.9
2017-Oct-20 10:30N 29°60' W 093°13'2 4.0
2017-Oct-20 10:01N 29°58' W 093°11'3 4.0
2017-Oct-20 09:22N 29°56' W 093°10'1 3.3
2017-Oct-20 09:01N 29°56' W 093°08'2 4.5
2017-Oct-20 08:30N 29°56' W 093°06'39 4.4
2017-Oct-19 23:40N 29°51' W 092°21'1 4.6
2017-Oct-19 23:29N 29°51' W 092°20'2 4.5
2017-Oct-19 22:56N 29°50' W 092°18'2 4.1
2017-Oct-19 22:31N 29°49' W 092°16'2 4.8
2017-Oct-19 22:01N 29°48' W 092°14'2 3.3
2017-Oct-19 21:31N 29°47' W 092°12'1 1.6
2017-Oct-19 21:01N 29°47' W 092°11'0 0.0
2017-Oct-19 20:31N 29°47' W 092°11'0 0.0
2017-Oct-19 20:01N 29°47' W 092°11'0 0.0
2017-Oct-19 19:31N 29°47' W 092°11'1 1.1
2017-Oct-19 19:01N 29°47' W 092°10'2 4.0
2017-Oct-19 18:31N 29°47' W 092°08'2 4.4
2017-Oct-19 18:01N 29°48' W 092°06'11 2.8
2017-Oct-19 14:06N 29°53' W 091°55'0 2.9
2017-Oct-19 13:57N 29°53' W 091°55'1 1.5
2017-Oct-19 13:31N 29°53' W 091°56'55 2.7
2017-Oct-18 17:07N 29°34' W 090°57'1 4.8
2017-Oct-18 16:56N 29°34' W 090°56'2 4.7
2017-Oct-18 16:27N 29°33' W 090°54'2 4.6
2017-Oct-18 16:00N 29°32' W 090°51'2 4.7
2017-Oct-18 15:30N 29°32' W 090°49'2 4.7
2017-Oct-18 15:01N 29°32' W 090°46'4 4.2
2017-Oct-18 14:01N 29°35' W 090°43'2 3.6
2017-Oct-18 13:31N 29°37' W 090°42'1 2.8
2017-Oct-18 13:00N 29°36' W 090°40'0 0.0
2017-Oct-18 12:31N 29°36' W 090°40'0 0.1
2017-Oct-18 12:01N 29°36' W 090°40'1 2.5
2017-Oct-18 11:31N 29°37' W 090°42'3 5.0
2017-Oct-18 11:00N 29°35' W 090°43'2 4.2
2017-Oct-18 10:31N 29°33' W 090°42'0 0.2
2017-Oct-18 10:01N 29°33' W 090°42'1 2.1
2017-Oct-18 09:31N 29°33' W 090°43'2 3.7
2017-Oct-18 09:00N 29°35' W 090°43'2 3.0
2017-Oct-18 08:31N 29°37' W 090°42'0 0.2
2017-Oct-18 08:01N 29°37' W 090°42'0 0.1
2017-Oct-18 07:30N 29°37' W 090°42'2 3.2
2017-Oct-18 07:01N 29°36' W 090°40'0 0.1
2017-Oct-18 06:30N 29°36' W 090°41'0 0.0
2017-Oct-18 06:00N 29°36' W 090°41'0 0.1
2017-Oct-18 05:30N 29°36' W 090°40'0 0.0
2017-Oct-18 05:01N 29°36' W 090°41'0 0.0
2017-Oct-18 04:31N 29°36' W 090°40'0 0.0
2017-Oct-18 04:01N 29°36' W 090°40'0 0.0
2017-Oct-18 03:31N 29°36' W 090°40'0 0.1
2017-Oct-18 03:01N 29°36' W 090°40'1 2.4
2017-Oct-18 02:31N 29°36' W 090°39'2 4.3
2017-Oct-18 02:00N 29°35' W 090°37'2 4.1
2017-Oct-18 01:30N 29°34' W 090°35'9 0.2
2017-Oct-16 00:49N 29°33' W 090°24'2 5.1
2017-Oct-16 00:26N 29°33' W 090°26'2 5.0
2017-Oct-16 00:00N 29°34' W 090°29'2 5.0
2017-Oct-15 23:31N 29°34' W 090°32'2 4.6
2017-Oct-15 23:01N 29°34' W 090°34'2 4.6
2017-Oct-15 22:31N 29°35' W 090°37'2 4.9
2017-Oct-15 22:00N 29°36' W 090°39'2 4.7
2017-Oct-15 21:31N 29°37' W 090°42'2 3.9
2017-Oct-15 21:01N 29°35' W 090°43'2 3.1
2017-Oct-15 20:31N 29°34' W 090°44'2 3.4
2017-Oct-15 20:01N 29°33' W 090°45'1 1.1
2017-Oct-15 19:31N 29°32' W 090°46'1 2.5
2017-Oct-15 19:01N 29°32' W 090°47'65 3.3
2017-Oct-14 23:05N 29°50' W 091°60'1 6.2
2017-Oct-14 23:00N 29°50' W 092°00'3 6.0
2017-Oct-14 22:31N 29°49' W 092°03'3 5.8
2017-Oct-14 22:01N 29°48' W 092°07'3 5.5
2017-Oct-14 21:31N 29°47' W 092°10'1 2.1
2017-Oct-14 21:00N 29°47' W 092°11'0 0.9
2017-Oct-14 20:31N 29°47' W 092°10'2 3.3
2017-Oct-14 20:01N 29°47' W 092°09'3 6.4
2017-Oct-14 19:31N 29°48' W 092°05'59 4.1
2017-Oct-14 05:03N 29°36' W 090°58'0 5.6
2017-Oct-14 04:59N 29°35' W 090°58'3 5.3
2017-Oct-14 04:26N 29°34' W 090°55'2 5.4
2017-Oct-14 04:00N 29°32' W 090°53'3 5.1
2017-Oct-14 03:30N 29°32' W 090°50'3 5.1
2017-Oct-14 03:01N 29°32' W 090°47'2 4.1
2017-Oct-14 02:31N 29°33' W 090°45'2 3.6
2017-Oct-14 02:01N 29°34' W 090°43'2 3.8
2017-Oct-14 01:28N 29°36' W 090°43'1 2.2
2017-Oct-14 01:01N 29°37' W 090°42'0 0.0
2017-Oct-14 00:30N 29°37' W 090°42'0 1.0
2017-Oct-14 00:00N 29°37' W 090°41'2 4.8
2017-Oct-13 23:30N 29°36' W 090°39'2 5.1
2017-Oct-13 23:01N 29°35' W 090°36'1 2.4
2017-Oct-13 22:25N 29°34' W 090°35'  

Dump ship's entire track history